sensor_id;sensor_type;location;lat;lon;timestamp;P1;durP1;ratioP1;P2;durP2;ratioP2
36247;SDS011;22287;50.824;5.644;2023-02-18T00:01:36;8.30;;;5.35;;
36247;SDS011;22287;50.824;5.644;2023-02-18T00:04:03;7.60;;;5.53;;
36247;SDS011;22287;50.824;5.644;2023-02-18T00:06:31;8.20;;;6.07;;
36247;SDS011;22287;50.824;5.644;2023-02-18T00:09:00;8.07;;;5.65;;
36247;SDS011;22287;50.824;5.644;2023-02-18T00:11:30;10.80;;;5.97;;
36247;SDS011;22287;50.824;5.644;2023-02-18T00:14:00;8.50;;;5.30;;
36247;SDS011;22287;50.824;5.644;2023-02-18T00:16:28;7.78;;;5.80;;
36247;SDS011;22287;50.824;5.644;2023-02-18T00:19:00;9.52;;;5.95;;
36247;SDS011;22287;50.824;5.644;2023-02-18T00:21:31;8.35;;;5.35;;
36247;SDS011;22287;50.824;5.644;2023-02-18T00:24:00;8.45;;;5.43;;
36247;SDS011;22287;50.824;5.644;2023-02-18T00:26:27;8.18;;;5.22;;
36247;SDS011;22287;50.824;5.644;2023-02-18T00:28:54;8.38;;;4.68;;
36247;SDS011;22287;50.824;5.644;2023-02-18T00:31:25;7.15;;;4.88;;
36247;SDS011;22287;50.824;5.644;2023-02-18T00:33:54;6.82;;;4.80;;
36247;SDS011;22287;50.824;5.644;2023-02-18T00:36:23;8.35;;;4.88;;
36247;SDS011;22287;50.824;5.644;2023-02-18T00:38:54;8.38;;;4.85;;
36247;SDS011;22287;50.824;5.644;2023-02-18T00:41:24;8.15;;;5.10;;
36247;SDS011;22287;50.824;5.644;2023-02-18T00:43:52;7.60;;;5.50;;
36247;SDS011;22287;50.824;5.644;2023-02-18T00:46:19;7.35;;;4.40;;
36247;SDS011;22287;50.824;5.644;2023-02-18T00:48:47;7.05;;;5.00;;
36247;SDS011;22287;50.824;5.644;2023-02-18T00:51:14;7.90;;;4.53;;
36247;SDS011;22287;50.824;5.644;2023-02-18T00:53:41;6.65;;;4.45;;
36247;SDS011;22287;50.824;5.644;2023-02-18T00:56:08;7.45;;;4.28;;
36247;SDS011;22287;50.824;5.644;2023-02-18T00:58:35;8.60;;;4.60;;
36247;SDS011;22287;50.824;5.644;2023-02-18T01:01:04;8.82;;;4.45;;
36247;SDS011;22287;50.824;5.644;2023-02-18T01:03:33;9.20;;;4.80;;
36247;SDS011;22287;50.824;5.644;2023-02-18T01:06:01;6.28;;;4.15;;
36247;SDS011;22287;50.824;5.644;2023-02-18T01:08:27;6.85;;;4.03;;
36247;SDS011;22287;50.824;5.644;2023-02-18T01:10:55;7.38;;;4.43;;
36247;SDS011;22287;50.824;5.644;2023-02-18T01:13:24;6.78;;;4.32;;
36247;SDS011;22287;50.824;5.644;2023-02-18T01:15:51;5.05;;;3.15;;
36247;SDS011;22287;50.824;5.644;2023-02-18T01:18:18;7.30;;;3.80;;
36247;SDS011;22287;50.824;5.644;2023-02-18T01:20:47;5.75;;;3.58;;
36247;SDS011;22287;50.824;5.644;2023-02-18T01:23:14;5.00;;;2.83;;
36247;SDS011;22287;50.824;5.644;2023-02-18T01:25:41;5.35;;;2.80;;
36247;SDS011;22287;50.824;5.644;2023-02-18T01:28:09;5.05;;;2.90;;
36247;SDS011;22287;50.824;5.644;2023-02-18T01:30:37;4.25;;;2.90;;
36247;SDS011;22287;50.824;5.644;2023-02-18T01:33:04;5.97;;;3.25;;
36247;SDS011;22287;50.824;5.644;2023-02-18T01:35:31;5.22;;;2.83;;
36247;SDS011;22287;50.824;5.644;2023-02-18T01:37:58;4.00;;;2.63;;
36247;SDS011;22287;50.824;5.644;2023-02-18T01:40:26;4.35;;;2.90;;
36247;SDS011;22287;50.824;5.644;2023-02-18T01:42:54;4.60;;;3.00;;
36247;SDS011;22287;50.824;5.644;2023-02-18T01:50:37;5.15;;;3.10;;
36247;SDS011;22287;50.824;5.644;2023-02-18T01:53:07;4.68;;;2.92;;
36247;SDS011;22287;50.824;5.644;2023-02-18T01:55:34;5.55;;;3.08;;
36247;SDS011;22287;50.824;5.644;2023-02-18T01:58:04;5.55;;;3.00;;
36247;SDS011;22287;50.824;5.644;2023-02-18T02:00:31;4.05;;;2.85;;
36247;SDS011;22287;50.824;5.644;2023-02-18T02:02:59;4.43;;;2.85;;
36247;SDS011;22287;50.824;5.644;2023-02-18T02:05:29;5.25;;;2.90;;
36247;SDS011;22287;50.824;5.644;2023-02-18T02:07:57;4.95;;;3.50;;
36247;SDS011;22287;50.824;5.644;2023-02-18T02:10:30;4.43;;;3.33;;
36247;SDS011;22287;50.824;5.644;2023-02-18T02:24:42;5.30;;;3.97;;
36247;SDS011;22287;50.824;5.644;2023-02-18T02:46:44;7.82;;;4.90;;
36247;SDS011;22287;50.824;5.644;2023-02-18T02:54:20;9.50;;;5.45;;
36247;SDS011;22287;50.824;5.644;2023-02-18T03:00:02;7.10;;;4.70;;
36247;SDS011;22287;50.824;5.644;2023-02-18T03:22:17;8.40;;;5.13;;
36247;SDS011;22287;50.824;5.644;2023-02-18T03:24:50;7.70;;;4.78;;
36247;SDS011;22287;50.824;5.644;2023-02-18T03:27:35;8.30;;;4.68;;
36247;SDS011;22287;50.824;5.644;2023-02-18T03:32:48;8.00;;;5.28;;
36247;SDS011;22287;50.824;5.644;2023-02-18T03:35:19;7.70;;;4.60;;
36247;SDS011;22287;50.824;5.644;2023-02-18T03:38:00;7.38;;;4.75;;
36247;SDS011;22287;50.824;5.644;2023-02-18T03:40:32;7.63;;;4.60;;
36247;SDS011;22287;50.824;5.644;2023-02-18T03:43:00;6.93;;;4.53;;
36247;SDS011;22287;50.824;5.644;2023-02-18T03:45:27;7.40;;;4.63;;
36247;SDS011;22287;50.824;5.644;2023-02-18T03:47:54;7.25;;;4.93;;
36247;SDS011;22287;50.824;5.644;2023-02-18T03:50:22;6.43;;;4.72;;
36247;SDS011;22287;50.824;5.644;2023-02-18T03:52:49;7.78;;;4.53;;
36247;SDS011;22287;50.824;5.644;2023-02-18T03:55:16;7.85;;;4.50;;
36247;SDS011;22287;50.824;5.644;2023-02-18T03:57:43;7.78;;;5.30;;
36247;SDS011;22287;50.824;5.644;2023-02-18T04:00:10;7.43;;;5.22;;
36247;SDS011;22287;50.824;5.644;2023-02-18T04:02:40;6.77;;;4.80;;
36247;SDS011;22287;50.824;5.644;2023-02-18T04:05:08;7.13;;;4.85;;
36247;SDS011;22287;50.824;5.644;2023-02-18T04:07:35;6.22;;;4.60;;
36247;SDS011;22287;50.824;5.644;2023-02-18T04:10:03;7.90;;;4.93;;
36247;SDS011;22287;50.824;5.644;2023-02-18T04:12:31;7.90;;;5.30;;
36247;SDS011;22287;50.824;5.644;2023-02-18T04:14:59;6.00;;;4.05;;
36247;SDS011;22287;50.824;5.644;2023-02-18T04:17:25;8.18;;;5.88;;
36247;SDS011;22287;50.824;5.644;2023-02-18T04:19:53;9.55;;;5.45;;
36247;SDS011;22287;50.824;5.644;2023-02-18T04:22:19;6.80;;;4.93;;
36247;SDS011;22287;50.824;5.644;2023-02-18T04:24:46;9.70;;;5.25;;
36247;SDS011;22287;50.824;5.644;2023-02-18T04:27:13;10.75;;;7.05;;
36247;SDS011;22287;50.824;5.644;2023-02-18T04:29:41;10.32;;;5.70;;
36247;SDS011;22287;50.824;5.644;2023-02-18T04:32:08;9.23;;;5.93;;
36247;SDS011;22287;50.824;5.644;2023-02-18T04:34:35;8.10;;;4.78;;
36247;SDS011;22287;50.824;5.644;2023-02-18T04:37:02;6.40;;;4.22;;
36247;SDS011;22287;50.824;5.644;2023-02-18T04:39:29;7.40;;;4.53;;
36247;SDS011;22287;50.824;5.644;2023-02-18T04:41:56;6.32;;;4.03;;
36247;SDS011;22287;50.824;5.644;2023-02-18T04:44:23;5.85;;;3.75;;
36247;SDS011;22287;50.824;5.644;2023-02-18T04:46:49;6.38;;;3.33;;
36247;SDS011;22287;50.824;5.644;2023-02-18T04:49:16;5.38;;;3.28;;
36247;SDS011;22287;50.824;5.644;2023-02-18T04:51:43;6.95;;;3.60;;
36247;SDS011;22287;50.824;5.644;2023-02-18T04:54:10;4.13;;;3.03;;
36247;SDS011;22287;50.824;5.644;2023-02-18T04:56:36;4.63;;;3.30;;
36247;SDS011;22287;50.824;5.644;2023-02-18T04:59:03;3.67;;;2.55;;
36247;SDS011;22287;50.824;5.644;2023-02-18T05:01:30;4.95;;;2.83;;
36247;SDS011;22287;50.824;5.644;2023-02-18T05:03:56;4.35;;;2.58;;
36247;SDS011;22287;50.824;5.644;2023-02-18T05:06:23;5.82;;;2.88;;
36247;SDS011;22287;50.824;5.644;2023-02-18T05:08:50;4.18;;;2.97;;
36247;SDS011;22287;50.824;5.644;2023-02-18T05:11:17;3.42;;;2.53;;
36247;SDS011;22287;50.824;5.644;2023-02-18T05:13:43;3.45;;;2.45;;
36247;SDS011;22287;50.824;5.644;2023-02-18T05:16:10;3.78;;;2.22;;
36247;SDS011;22287;50.824;5.644;2023-02-18T05:18:38;3.60;;;2.33;;
36247;SDS011;22287;50.824;5.644;2023-02-18T05:21:05;3.10;;;1.92;;
36247;SDS011;22287;50.824;5.644;2023-02-18T05:23:32;3.22;;;1.80;;
36247;SDS011;22287;50.824;5.644;2023-02-18T05:25:59;4.00;;;2.15;;
36247;SDS011;22287;50.824;5.644;2023-02-18T05:28:26;3.22;;;2.30;;
36247;SDS011;22287;50.824;5.644;2023-02-18T05:30:53;3.20;;;2.10;;
36247;SDS011;22287;50.824;5.644;2023-02-18T05:33:20;4.13;;;2.08;;
36247;SDS011;22287;50.824;5.644;2023-02-18T05:35:47;2.70;;;1.77;;
36247;SDS011;22287;50.824;5.644;2023-02-18T05:38:14;2.35;;;1.73;;
36247;SDS011;22287;50.824;5.644;2023-02-18T05:40:41;2.70;;;1.63;;
36247;SDS011;22287;50.824;5.644;2023-02-18T05:43:09;4.10;;;1.98;;
36247;SDS011;22287;50.824;5.644;2023-02-18T05:45:36;3.40;;;2.05;;
36247;SDS011;22287;50.824;5.644;2023-02-18T05:48:03;2.50;;;1.95;;
36247;SDS011;22287;50.824;5.644;2023-02-18T05:50:30;3.55;;;2.17;;
36247;SDS011;22287;50.824;5.644;2023-02-18T05:52:58;3.22;;;2.00;;
36247;SDS011;22287;50.824;5.644;2023-02-18T05:55:25;4.55;;;2.33;;
36247;SDS011;22287;50.824;5.644;2023-02-18T05:57:52;3.63;;;2.30;;
36247;SDS011;22287;50.824;5.644;2023-02-18T06:00:19;3.58;;;2.50;;
36247;SDS011;22287;50.824;5.644;2023-02-18T06:02:46;2.92;;;1.88;;
36247;SDS011;22287;50.824;5.644;2023-02-18T06:05:13;3.60;;;2.17;;
36247;SDS011;22287;50.824;5.644;2023-02-18T06:07:40;4.00;;;1.85;;
36247;SDS011;22287;50.824;5.644;2023-02-18T06:10:07;3.22;;;1.95;;
36247;SDS011;22287;50.824;5.644;2023-02-18T06:12:34;3.33;;;2.13;;
36247;SDS011;22287;50.824;5.644;2023-02-18T06:15:01;4.22;;;2.05;;
36247;SDS011;22287;50.824;5.644;2023-02-18T06:17:28;3.03;;;1.85;;
36247;SDS011;22287;50.824;5.644;2023-02-18T06:19:55;3.15;;;2.03;;
36247;SDS011;22287;50.824;5.644;2023-02-18T06:22:21;3.10;;;1.70;;
36247;SDS011;22287;50.824;5.644;2023-02-18T06:24:48;4.13;;;1.95;;
36247;SDS011;22287;50.824;5.644;2023-02-18T06:27:15;4.43;;;2.33;;
36247;SDS011;22287;50.824;5.644;2023-02-18T06:29:42;2.80;;;1.90;;
36247;SDS011;22287;50.824;5.644;2023-02-18T06:32:09;3.35;;;1.77;;
36247;SDS011;22287;50.824;5.644;2023-02-18T06:34:36;2.70;;;1.88;;
36247;SDS011;22287;50.824;5.644;2023-02-18T06:37:02;4.10;;;1.88;;
36247;SDS011;22287;50.824;5.644;2023-02-18T06:39:29;3.45;;;1.95;;
36247;SDS011;22287;50.824;5.644;2023-02-18T06:41:56;3.17;;;1.92;;
36247;SDS011;22287;50.824;5.644;2023-02-18T06:44:22;2.92;;;1.88;;
36247;SDS011;22287;50.824;5.644;2023-02-18T06:46:49;2.67;;;1.60;;
36247;SDS011;22287;50.824;5.644;2023-02-18T06:49:16;3.38;;;2.20;;
36247;SDS011;22287;50.824;5.644;2023-02-18T06:51:43;3.00;;;1.88;;
36247;SDS011;22287;50.824;5.644;2023-02-18T06:54:10;2.65;;;1.95;;
36247;SDS011;22287;50.824;5.644;2023-02-18T06:56:37;3.53;;;1.70;;
36247;SDS011;22287;50.824;5.644;2023-02-18T06:59:03;3.75;;;1.80;;
36247;SDS011;22287;50.824;5.644;2023-02-18T07:01:30;3.05;;;1.73;;
36247;SDS011;22287;50.824;5.644;2023-02-18T07:03:56;2.58;;;1.42;;
36247;SDS011;22287;50.824;5.644;2023-02-18T07:06:23;2.05;;;1.67;;
36247;SDS011;22287;50.824;5.644;2023-02-18T07:08:50;3.42;;;1.23;;
36247;SDS011;22287;50.824;5.644;2023-02-18T07:11:17;3.25;;;1.10;;
36247;SDS011;22287;50.824;5.644;2023-02-18T07:13:43;4.32;;;2.35;;
36247;SDS011;22287;50.824;5.644;2023-02-18T07:16:10;6.07;;;1.52;;
36247;SDS011;22287;50.824;5.644;2023-02-18T07:18:37;3.83;;;1.10;;
36247;SDS011;22287;50.824;5.644;2023-02-18T07:21:04;5.53;;;1.45;;
36247;SDS011;22287;50.824;5.644;2023-02-18T07:23:31;4.88;;;1.58;;
36247;SDS011;22287;50.824;5.644;2023-02-18T07:26:08;4.03;;;1.55;;
36247;SDS011;22287;50.824;5.644;2023-02-18T07:28:37;5.00;;;1.80;;
36247;SDS011;22287;50.824;5.644;2023-02-18T07:31:04;4.47;;;2.05;;
36247;SDS011;22287;50.824;5.644;2023-02-18T07:33:32;6.03;;;2.03;;
36247;SDS011;22287;50.824;5.644;2023-02-18T07:35:59;5.35;;;1.98;;
36247;SDS011;22287;50.824;5.644;2023-02-18T07:38:27;5.20;;;1.63;;
36247;SDS011;22287;50.824;5.644;2023-02-18T07:40:55;5.97;;;2.45;;
36247;SDS011;22287;50.824;5.644;2023-02-18T07:43:23;6.47;;;2.42;;
36247;SDS011;22287;50.824;5.644;2023-02-18T07:45:49;5.63;;;2.90;;
36247;SDS011;22287;50.824;5.644;2023-02-18T07:48:18;4.63;;;2.10;;
36247;SDS011;22287;50.824;5.644;2023-02-18T07:50:45;5.90;;;2.72;;
36247;SDS011;22287;50.824;5.644;2023-02-18T07:53:13;7.60;;;2.08;;
36247;SDS011;22287;50.824;5.644;2023-02-18T07:55:42;6.80;;;2.17;;
36247;SDS011;22287;50.824;5.644;2023-02-18T08:00:41;8.20;;;2.30;;
36247;SDS011;22287;50.824;5.644;2023-02-18T08:03:08;7.22;;;2.10;;
36247;SDS011;22287;50.824;5.644;2023-02-18T08:05:35;6.40;;;2.47;;
36247;SDS011;22287;50.824;5.644;2023-02-18T08:08:02;6.07;;;1.98;;
36247;SDS011;22287;50.824;5.644;2023-02-18T08:10:30;10.52;;;2.28;;
36247;SDS011;22287;50.824;5.644;2023-02-18T08:12:56;10.15;;;2.20;;
36247;SDS011;22287;50.824;5.644;2023-02-18T08:15:23;10.05;;;2.30;;
36247;SDS011;22287;50.824;5.644;2023-02-18T08:17:50;8.27;;;2.60;;
36247;SDS011;22287;50.824;5.644;2023-02-18T08:20:17;7.25;;;2.50;;
36247;SDS011;22287;50.824;5.644;2023-02-18T08:22:44;6.75;;;1.80;;
36247;SDS011;22287;50.824;5.644;2023-02-18T08:25:11;6.55;;;2.33;;
36247;SDS011;22287;50.824;5.644;2023-02-18T08:27:53;7.32;;;1.60;;
36247;SDS011;22287;50.824;5.644;2023-02-18T08:30:20;8.20;;;2.85;;
36247;SDS011;22287;50.824;5.644;2023-02-18T08:32:47;4.90;;;1.77;;
36247;SDS011;22287;50.824;5.644;2023-02-18T08:35:14;8.73;;;2.15;;
36247;SDS011;22287;50.824;5.644;2023-02-18T08:37:41;7.85;;;1.95;;
36247;SDS011;22287;50.824;5.644;2023-02-18T08:40:18;6.55;;;2.00;;
36247;SDS011;22287;50.824;5.644;2023-02-18T08:42:45;6.93;;;2.17;;
36247;SDS011;22287;50.824;5.644;2023-02-18T08:45:12;9.18;;;3.17;;
36247;SDS011;22287;50.824;5.644;2023-02-18T08:47:38;11.48;;;3.13;;
36247;SDS011;22287;50.824;5.644;2023-02-18T08:50:26;6.95;;;2.20;;
36247;SDS011;22287;50.824;5.644;2023-02-18T08:52:54;6.78;;;1.98;;
36247;SDS011;22287;50.824;5.644;2023-02-18T08:55:22;7.20;;;2.30;;
36247;SDS011;22287;50.824;5.644;2023-02-18T08:57:49;8.55;;;2.08;;
36247;SDS011;22287;50.824;5.644;2023-02-18T09:00:16;10.50;;;2.42;;
36247;SDS011;22287;50.824;5.644;2023-02-18T09:02:43;5.00;;;1.80;;
36247;SDS011;22287;50.824;5.644;2023-02-18T09:05:11;5.03;;;1.80;;
36247;SDS011;22287;50.824;5.644;2023-02-18T09:07:37;4.53;;;1.65;;
36247;SDS011;22287;50.824;5.644;2023-02-18T09:10:05;6.45;;;1.67;;
36247;SDS011;22287;50.824;5.644;2023-02-18T09:12:33;8.70;;;2.10;;
36247;SDS011;22287;50.824;5.644;2023-02-18T09:15:00;7.85;;;1.85;;
36247;SDS011;22287;50.824;5.644;2023-02-18T09:17:27;5.25;;;1.85;;
36247;SDS011;22287;50.824;5.644;2023-02-18T09:19:54;4.75;;;2.00;;
36247;SDS011;22287;50.824;5.644;2023-02-18T09:22:21;7.50;;;2.50;;
36247;SDS011;22287;50.824;5.644;2023-02-18T09:24:48;7.72;;;2.75;;
36247;SDS011;22287;50.824;5.644;2023-02-18T09:27:15;10.02;;;3.17;;
36247;SDS011;22287;50.824;5.644;2023-02-18T09:29:42;7.60;;;2.15;;
36247;SDS011;22287;50.824;5.644;2023-02-18T09:32:10;6.97;;;2.53;;
36247;SDS011;22287;50.824;5.644;2023-02-18T09:34:43;7.63;;;2.08;;
36247;SDS011;22287;50.824;5.644;2023-02-18T09:37:10;4.32;;;2.13;;
36247;SDS011;22287;50.824;5.644;2023-02-18T09:39:37;10.95;;;2.40;;
36247;SDS011;22287;50.824;5.644;2023-02-18T09:42:04;6.05;;;2.08;;
36247;SDS011;22287;50.824;5.644;2023-02-18T09:44:40;4.38;;;1.20;;
36247;SDS011;22287;50.824;5.644;2023-02-18T09:49:53;5.82;;;1.40;;
36247;SDS011;22287;50.824;5.644;2023-02-18T09:52:29;6.25;;;1.55;;
36247;SDS011;22287;50.824;5.644;2023-02-18T09:54:58;7.43;;;1.33;;
36247;SDS011;22287;50.824;5.644;2023-02-18T09:57:47;6.15;;;1.20;;
36247;SDS011;22287;50.824;5.644;2023-02-18T10:00:17;4.78;;;1.30;;
36247;SDS011;22287;50.824;5.644;2023-02-18T10:03:16;6.88;;;2.33;;
36247;SDS011;22287;50.824;5.644;2023-02-18T10:05:55;6.75;;;3.28;;
36247;SDS011;22287;50.824;5.644;2023-02-18T10:08:26;8.70;;;3.20;;
36247;SDS011;22287;50.824;5.644;2023-02-18T10:11:02;10.13;;;2.95;;
36247;SDS011;22287;50.824;5.644;2023-02-18T10:13:30;8.90;;;2.75;;
36247;SDS011;22287;50.824;5.644;2023-02-18T10:15:59;5.95;;;2.17;;
36247;SDS011;22287;50.824;5.644;2023-02-18T10:20:57;3.85;;;1.70;;
36247;SDS011;22287;50.824;5.644;2023-02-18T10:23:30;5.32;;;1.73;;
36247;SDS011;22287;50.824;5.644;2023-02-18T10:26:01;3.67;;;2.10;;
36247;SDS011;22287;50.824;5.644;2023-02-18T10:28:33;15.52;;;3.00;;
36247;SDS011;22287;50.824;5.644;2023-02-18T10:31:05;8.88;;;2.60;;
36247;SDS011;22287;50.824;5.644;2023-02-18T10:39:04;5.43;;;2.20;;
36247;SDS011;22287;50.824;5.644;2023-02-18T10:41:36;7.55;;;2.47;;
36247;SDS011;22287;50.824;5.644;2023-02-18T10:52:08;3.47;;;2.08;;
36247;SDS011;22287;50.824;5.644;2023-02-18T10:55:15;5.53;;;2.60;;
36247;SDS011;22287;50.824;5.644;2023-02-18T10:57:56;5.55;;;1.95;;
36247;SDS011;22287;50.824;5.644;2023-02-18T11:00:24;3.72;;;1.95;;
36247;SDS011;22287;50.824;5.644;2023-02-18T11:06:43;5.03;;;2.00;;
36247;SDS011;22287;50.824;5.644;2023-02-18T11:09:18;6.67;;;2.20;;
36247;SDS011;22287;50.824;5.644;2023-02-18T11:11:57;5.68;;;1.88;;
36247;SDS011;22287;50.824;5.644;2023-02-18T11:14:35;6.55;;;1.92;;
36247;SDS011;22287;50.824;5.644;2023-02-18T11:17:20;11.75;;;2.28;;
36247;SDS011;22287;50.824;5.644;2023-02-18T11:23:18;9.43;;;2.30;;
36247;SDS011;22287;50.824;5.644;2023-02-18T11:25:54;5.97;;;2.55;;
36247;SDS011;22287;50.824;5.644;2023-02-18T11:28:28;10.73;;;2.45;;
36247;SDS011;22287;50.824;5.644;2023-02-18T11:31:02;4.90;;;1.80;;
36247;SDS011;22287;50.824;5.644;2023-02-18T11:35:57;5.03;;;2.17;;
36247;SDS011;22287;50.824;5.644;2023-02-18T11:38:33;6.88;;;2.15;;
36247;SDS011;22287;50.824;5.644;2023-02-18T11:41:05;7.13;;;2.22;;
36247;SDS011;22287;50.824;5.644;2023-02-18T11:43:35;6.88;;;2.30;;
36247;SDS011;22287;50.824;5.644;2023-02-18T11:46:10;6.72;;;2.47;;
36247;SDS011;22287;50.824;5.644;2023-02-18T11:48:42;5.20;;;2.47;;
36247;SDS011;22287;50.824;5.644;2023-02-18T11:53:54;6.80;;;2.58;;
36247;SDS011;22287;50.824;5.644;2023-02-18T11:56:28;6.07;;;2.45;;
36247;SDS011;22287;50.824;5.644;2023-02-18T11:59:00;9.00;;;2.45;;
36247;SDS011;22287;50.824;5.644;2023-02-18T12:01:42;10.43;;;3.13;;
36247;SDS011;22287;50.824;5.644;2023-02-18T12:09:26;6.95;;;2.67;;
36247;SDS011;22287;50.824;5.644;2023-02-18T12:11:57;8.88;;;3.67;;
36247;SDS011;22287;50.824;5.644;2023-02-18T12:14:28;8.85;;;3.25;;
36247;SDS011;22287;50.824;5.644;2023-02-18T12:25:34;6.75;;;2.90;;
36247;SDS011;22287;50.824;5.644;2023-02-18T12:36:00;5.53;;;2.70;;
36247;SDS011;22287;50.824;5.644;2023-02-18T12:39:08;9.15;;;3.45;;
36247;SDS011;22287;50.824;5.644;2023-02-18T13:00:40;6.03;;;3.38;;
36247;SDS011;22287;50.824;5.644;2023-02-18T13:08:58;7.07;;;4.10;;
36247;SDS011;22287;50.824;5.644;2023-02-18T13:14:15;8.45;;;4.43;;
36247;SDS011;22287;50.824;5.644;2023-02-18T13:16:54;7.03;;;4.18;;
36247;SDS011;22287;50.824;5.644;2023-02-18T13:19:30;9.38;;;4.28;;
36247;SDS011;22287;50.824;5.644;2023-02-18T13:22:04;8.13;;;4.30;;
36247;SDS011;22287;50.824;5.644;2023-02-18T13:24:34;6.88;;;3.78;;
36247;SDS011;22287;50.824;5.644;2023-02-18T13:30:08;9.05;;;3.30;;
36247;SDS011;22287;50.824;5.644;2023-02-18T13:35:42;5.35;;;3.38;;
36247;SDS011;22287;50.824;5.644;2023-02-18T13:38:20;6.20;;;3.72;;
36247;SDS011;22287;50.824;5.644;2023-02-18T13:41:08;6.28;;;3.80;;
36247;SDS011;22287;50.824;5.644;2023-02-18T13:43:36;7.88;;;3.65;;
36247;SDS011;22287;50.824;5.644;2023-02-18T13:48:33;9.02;;;3.88;;
36247;SDS011;22287;50.824;5.644;2023-02-18T13:51:07;4.50;;;3.40;;
36247;SDS011;22287;50.824;5.644;2023-02-18T13:53:35;7.30;;;3.60;;
36247;SDS011;22287;50.824;5.644;2023-02-18T13:56:04;6.95;;;3.45;;
36247;SDS011;22287;50.824;5.644;2023-02-18T13:58:49;6.97;;;3.60;;
36247;SDS011;22287;50.824;5.644;2023-02-18T14:01:43;10.38;;;3.63;;
36247;SDS011;22287;50.824;5.644;2023-02-18T14:09:53;5.50;;;3.10;;
36247;SDS011;22287;50.824;5.644;2023-02-18T14:12:26;4.75;;;3.45;;
36247;SDS011;22287;50.824;5.644;2023-02-18T14:15:00;4.18;;;2.67;;
36247;SDS011;22287;50.824;5.644;2023-02-18T14:17:36;5.57;;;3.25;;
36247;SDS011;22287;50.824;5.644;2023-02-18T14:22:41;5.60;;;3.03;;
36247;SDS011;22287;50.824;5.644;2023-02-18T14:27:40;7.45;;;3.60;;
36247;SDS011;22287;50.824;5.644;2023-02-18T14:32:50;5.15;;;3.10;;
36247;SDS011;22287;50.824;5.644;2023-02-18T14:41:11;9.82;;;3.53;;
36247;SDS011;22287;50.824;5.644;2023-02-18T14:46:46;6.30;;;4.10;;
36247;SDS011;22287;50.824;5.644;2023-02-18T14:49:38;5.97;;;3.75;;
36247;SDS011;22287;50.824;5.644;2023-02-18T14:54:38;7.65;;;3.28;;
36247;SDS011;22287;50.824;5.644;2023-02-18T14:57:08;7.28;;;5.03;;
36247;SDS011;22287;50.824;5.644;2023-02-18T14:59:42;5.90;;;4.22;;
36247;SDS011;22287;50.824;5.644;2023-02-18T15:02:33;7.40;;;3.67;;
36247;SDS011;22287;50.824;5.644;2023-02-18T15:07:38;7.03;;;3.42;;
36247;SDS011;22287;50.824;5.644;2023-02-18T15:10:12;9.38;;;3.58;;
36247;SDS011;22287;50.824;5.644;2023-02-18T15:12:41;6.28;;;3.75;;
36247;SDS011;22287;50.824;5.644;2023-02-18T15:15:08;6.45;;;3.75;;
36247;SDS011;22287;50.824;5.644;2023-02-18T15:17:43;6.78;;;3.80;;
36247;SDS011;22287;50.824;5.644;2023-02-18T15:20:13;6.32;;;3.70;;
36247;SDS011;22287;50.824;5.644;2023-02-18T15:22:41;6.07;;;4.50;;
36247;SDS011;22287;50.824;5.644;2023-02-18T15:25:10;7.65;;;4.30;;
36247;SDS011;22287;50.824;5.644;2023-02-18T15:27:39;6.85;;;4.40;;
36247;SDS011;22287;50.824;5.644;2023-02-18T15:32:55;6.70;;;4.03;;
36247;SDS011;22287;50.824;5.644;2023-02-18T15:35:25;7.93;;;4.03;;
36247;SDS011;22287;50.824;5.644;2023-02-18T15:37:56;8.80;;;3.85;;
36247;SDS011;22287;50.824;5.644;2023-02-18T15:40:26;7.38;;;3.83;;
36247;SDS011;22287;50.824;5.644;2023-02-18T15:42:58;9.05;;;4.43;;
36247;SDS011;22287;50.824;5.644;2023-02-18T15:45:35;6.03;;;3.60;;
36247;SDS011;22287;50.824;5.644;2023-02-18T15:48:12;9.73;;;3.70;;
36247;SDS011;22287;50.824;5.644;2023-02-18T15:51:02;12.07;;;3.95;;
36247;SDS011;22287;50.824;5.644;2023-02-18T15:53:43;8.57;;;3.75;;
36247;SDS011;22287;50.824;5.644;2023-02-18T15:59:09;5.55;;;3.63;;
36247;SDS011;22287;50.824;5.644;2023-02-18T16:02:18;7.13;;;3.78;;
36247;SDS011;22287;50.824;5.644;2023-02-18T16:04:53;6.72;;;4.13;;
36247;SDS011;22287;50.824;5.644;2023-02-18T16:10:06;6.47;;;3.55;;
36247;SDS011;22287;50.824;5.644;2023-02-18T16:12:34;7.65;;;4.78;;
36247;SDS011;22287;50.824;5.644;2023-02-18T16:15:04;7.40;;;4.18;;
36247;SDS011;22287;50.824;5.644;2023-02-18T16:17:32;10.07;;;4.40;;
36247;SDS011;22287;50.824;5.644;2023-02-18T16:20:00;7.43;;;4.10;;
36247;SDS011;22287;50.824;5.644;2023-02-18T16:22:44;5.88;;;3.80;;
36247;SDS011;22287;50.824;5.644;2023-02-18T16:30:17;9.05;;;4.85;;
36247;SDS011;22287;50.824;5.644;2023-02-18T16:32:55;8.18;;;4.70;;
36247;SDS011;22287;50.824;5.644;2023-02-18T16:35:24;8.10;;;4.70;;
36247;SDS011;22287;50.824;5.644;2023-02-18T16:37:57;7.18;;;4.55;;
36247;SDS011;22287;50.824;5.644;2023-02-18T16:42:55;6.40;;;4.40;;
36247;SDS011;22287;50.824;5.644;2023-02-18T16:45:32;8.77;;;4.60;;
36247;SDS011;22287;50.824;5.644;2023-02-18T16:48:01;6.70;;;4.70;;
36247;SDS011;22287;50.824;5.644;2023-02-18T16:50:29;8.23;;;4.88;;
36247;SDS011;22287;50.824;5.644;2023-02-18T16:52:58;9.57;;;5.25;;
36247;SDS011;22287;50.824;5.644;2023-02-18T16:55:26;12.60;;;7.07;;
36247;SDS011;22287;50.824;5.644;2023-02-18T16:57:55;8.77;;;5.57;;
36247;SDS011;22287;50.824;5.644;2023-02-18T17:00:22;9.50;;;5.18;;
36247;SDS011;22287;50.824;5.644;2023-02-18T17:02:52;9.45;;;5.75;;
36247;SDS011;22287;50.824;5.644;2023-02-18T17:05:23;8.57;;;5.28;;
36247;SDS011;22287;50.824;5.644;2023-02-18T17:07:53;9.38;;;5.35;;
36247;SDS011;22287;50.824;5.644;2023-02-18T17:10:20;11.25;;;5.18;;
36247;SDS011;22287;50.824;5.644;2023-02-18T17:12:47;8.80;;;5.10;;
36247;SDS011;22287;50.824;5.644;2023-02-18T17:15:20;7.50;;;4.80;;
36247;SDS011;22287;50.824;5.644;2023-02-18T17:17:52;9.48;;;5.22;;
36247;SDS011;22287;50.824;5.644;2023-02-18T17:20:19;7.70;;;5.18;;
36247;SDS011;22287;50.824;5.644;2023-02-18T17:22:46;6.85;;;4.30;;
36247;SDS011;22287;50.824;5.644;2023-02-18T17:25:16;6.35;;;4.85;;
36247;SDS011;22287;50.824;5.644;2023-02-18T17:27:48;7.22;;;4.40;;
36247;SDS011;22287;50.824;5.644;2023-02-18T17:30:14;10.45;;;5.15;;
36247;SDS011;22287;50.824;5.644;2023-02-18T17:32:42;6.50;;;4.43;;
36247;SDS011;22287;50.824;5.644;2023-02-18T17:35:18;6.15;;;4.43;;
36247;SDS011;22287;50.824;5.644;2023-02-18T17:37:47;7.18;;;4.05;;
36247;SDS011;22287;50.824;5.644;2023-02-18T17:40:15;5.93;;;4.22;;
36247;SDS011;22287;50.824;5.644;2023-02-18T17:42:43;6.30;;;4.50;;
36247;SDS011;22287;50.824;5.644;2023-02-18T17:45:18;5.68;;;3.90;;
36247;SDS011;22287;50.824;5.644;2023-02-18T17:47:55;6.97;;;3.92;;
36247;SDS011;22287;50.824;5.644;2023-02-18T17:50:24;6.63;;;4.30;;
36247;SDS011;22287;50.824;5.644;2023-02-18T17:52:52;6.05;;;3.80;;
36247;SDS011;22287;50.824;5.644;2023-02-18T17:57:53;7.47;;;4.07;;
36247;SDS011;22287;50.824;5.644;2023-02-18T18:00:24;7.75;;;3.92;;
36247;SDS011;22287;50.824;5.644;2023-02-18T18:02:53;7.22;;;4.05;;
36247;SDS011;22287;50.824;5.644;2023-02-18T18:05:22;6.70;;;4.30;;
36247;SDS011;22287;50.824;5.644;2023-02-18T18:07:54;9.07;;;4.07;;
36247;SDS011;22287;50.824;5.644;2023-02-18T18:10:25;6.53;;;4.25;;
36247;SDS011;22287;50.824;5.644;2023-02-18T18:12:59;6.57;;;5.20;;
36247;SDS011;22287;50.824;5.644;2023-02-18T18:15:28;9.27;;;5.00;;
36247;SDS011;22287;50.824;5.644;2023-02-18T18:17:57;7.87;;;5.27;;
36247;SDS011;22287;50.824;5.644;2023-02-18T18:20:25;8.07;;;5.63;;
36247;SDS011;22287;50.824;5.644;2023-02-18T18:22:54;7.00;;;4.75;;
36247;SDS011;22287;50.824;5.644;2023-02-18T18:25:24;9.60;;;5.28;;
36247;SDS011;22287;50.824;5.644;2023-02-18T18:27:53;6.97;;;4.90;;
36247;SDS011;22287;50.824;5.644;2023-02-18T18:30:28;7.15;;;5.13;;